createdAt,value
2023-04-30T00:02:15.599Z,100.00
2023-04-30T00:04:42.281Z,100.00
2023-04-30T00:07:09.002Z,100.00
2023-04-30T00:09:35.663Z,100.00
2023-04-30T00:12:02.425Z,100.00
2023-04-30T00:14:29.263Z,100.00
2023-04-30T00:16:55.958Z,100.00
2023-04-30T00:19:22.733Z,100.00
2023-04-30T00:21:49.582Z,100.00
2023-04-30T00:24:16.245Z,100.00
2023-04-30T00:26:43.979Z,100.00
2023-04-30T00:29:11.276Z,100.00
2023-04-30T00:31:38.087Z,100.00
2023-04-30T00:34:04.889Z,100.00
2023-04-30T00:36:31.942Z,100.00
2023-04-30T00:38:58.659Z,100.00
2023-04-30T00:41:26.008Z,100.00
2023-04-30T00:43:52.710Z,100.00
2023-04-30T00:46:19.523Z,100.00
2023-04-30T00:48:46.230Z,100.00
2023-04-30T00:51:13.419Z,100.00
2023-04-30T00:53:40.521Z,100.00
2023-04-30T00:56:09.378Z,100.00
2023-04-30T00:58:36.195Z,100.00
2023-04-30T01:01:07.092Z,100.00
2023-04-30T01:03:36.323Z,100.00
2023-04-30T01:06:03.442Z,100.00
2023-04-30T01:08:31.856Z,100.00
2023-04-30T01:11:04.315Z,100.00
2023-04-30T01:13:40.857Z,100.00
2023-04-30T01:16:18.244Z,100.00
2023-04-30T01:18:54.968Z,100.00
2023-04-30T01:21:22.772Z,100.00
2023-04-30T01:23:55.434Z,100.00
2023-04-30T01:26:58.573Z,100.00
2023-04-30T01:29:27.676Z,100.00
2023-04-30T01:31:54.262Z,100.00
2023-04-30T01:34:20.882Z,100.00
2023-04-30T01:37:30.069Z,100.00
2023-04-30T01:39:59.580Z,100.00
2023-04-30T01:42:41.779Z,100.00
2023-04-30T01:45:46.175Z,100.00
2023-04-30T01:48:31.412Z,100.00
2023-04-30T01:51:15.089Z,100.00
2023-04-30T01:53:43.969Z,100.00
2023-04-30T01:56:19.098Z,100.00
2023-04-30T01:58:49.648Z,100.00
2023-04-30T02:01:30.834Z,100.00
2023-04-30T02:03:57.811Z,100.00
2023-04-30T02:06:28.732Z,100.00
2023-04-30T02:09:04.286Z,100.00
2023-04-30T02:11:31.075Z,100.00
2023-04-30T02:13:57.730Z,100.00
2023-04-30T02:16:24.562Z,100.00
2023-04-30T02:18:51.825Z,100.00
2023-04-30T02:21:18.592Z,100.00
2023-04-30T02:23:45.345Z,100.00
2023-04-30T02:26:12.000Z,100.00
2023-04-30T02:28:38.738Z,100.00
2023-04-30T02:31:05.969Z,100.00
2023-04-30T02:33:32.804Z,100.00
2023-04-30T02:36:00.966Z,100.00
2023-04-30T02:38:27.698Z,100.00
2023-04-30T02:40:54.378Z,100.00
2023-04-30T02:43:21.146Z,100.00
2023-04-30T02:45:48.318Z,100.00
2023-04-30T02:48:15.574Z,100.00
2023-04-30T02:50:42.206Z,100.00
2023-04-30T02:53:08.922Z,100.00
2023-04-30T02:55:35.728Z,100.00
2023-04-30T02:58:02.436Z,100.00
2023-04-30T03:00:29.124Z,100.00
2023-04-30T03:02:56.076Z,100.00
2023-04-30T03:05:23.176Z,100.00
2023-04-30T03:07:49.879Z,100.00
2023-04-30T03:10:16.640Z,100.00
2023-04-30T03:12:43.241Z,100.00
2023-04-30T03:15:10.738Z,100.00
2023-04-30T03:17:37.471Z,100.00
2023-04-30T03:20:04.428Z,100.00
2023-04-30T03:22:31.052Z,100.00
2023-04-30T03:24:57.759Z,100.00
2023-04-30T03:27:24.404Z,100.00
2023-04-30T03:29:51.081Z,100.00
2023-04-30T03:32:17.707Z,100.00
2023-04-30T03:34:44.393Z,100.00
2023-04-30T03:37:11.087Z,100.00
2023-04-30T03:39:37.789Z,100.00
2023-04-30T03:42:04.544Z,100.00
2023-04-30T03:44:31.238Z,100.00
2023-04-30T03:46:57.989Z,100.00
2023-04-30T03:49:24.739Z,100.00
2023-04-30T03:51:51.414Z,100.00
2023-04-30T03:54:18.069Z,100.00
2023-04-30T03:56:44.748Z,100.00
2023-04-30T03:59:11.503Z,100.00
2023-04-30T04:01:38.314Z,100.00
2023-04-30T04:04:05.273Z,100.00
2023-04-30T04:08:58.875Z,100.00
2023-04-30T04:11:25.805Z,100.00
2023-04-30T04:13:52.443Z,100.00
2023-04-30T04:16:19.153Z,100.00
2023-04-30T04:18:46.177Z,100.00
2023-04-30T04:21:13.240Z,100.00
2023-04-30T04:23:39.980Z,100.00
2023-04-30T04:26:07.105Z,100.00
2023-04-30T04:28:33.732Z,100.00
2023-04-30T04:31:00.578Z,100.00
2023-04-30T04:33:27.864Z,100.00
2023-04-30T04:35:54.968Z,100.00
2023-04-30T04:38:22.302Z,100.00
2023-04-30T04:40:53.797Z,100.00
2023-04-30T04:43:20.789Z,100.00
2023-04-30T04:45:48.061Z,100.00
2023-04-30T04:48:15.240Z,100.00
2023-04-30T04:50:42.163Z,100.00
2023-04-30T04:53:08.997Z,100.00
2023-04-30T04:55:36.214Z,100.00
2023-04-30T04:58:02.950Z,100.00
2023-04-30T05:00:29.902Z,100.00
2023-04-30T05:02:56.903Z,100.00
2023-04-30T05:05:24.123Z,100.00
2023-04-30T05:07:52.500Z,100.00
2023-04-30T05:10:22.002Z,100.00
2023-04-30T05:12:48.618Z,100.00
2023-04-30T05:15:15.413Z,100.00
2023-04-30T05:17:42.197Z,100.00
2023-04-30T05:20:09.632Z,100.00
2023-04-30T05:22:36.327Z,100.00
2023-04-30T05:25:02.998Z,100.00
2023-04-30T05:27:29.852Z,100.00
2023-04-30T05:29:56.764Z,100.00
2023-04-30T05:32:23.753Z,100.00
2023-04-30T05:34:50.615Z,100.00
2023-04-30T05:37:19.437Z,100.00
2023-04-30T05:39:46.784Z,100.00
2023-04-30T05:42:13.466Z,100.00
2023-04-30T05:44:41.177Z,100.00
2023-04-30T05:47:07.896Z,100.00
2023-04-30T05:49:36.201Z,100.00
2023-04-30T05:52:03.747Z,100.00
2023-04-30T05:54:31.194Z,100.00
2023-04-30T05:56:57.995Z,100.00
2023-04-30T05:59:24.906Z,100.00
2023-04-30T06:01:52.133Z,100.00
2023-04-30T06:04:18.792Z,100.00
2023-04-30T06:06:45.666Z,100.00
2023-04-30T06:09:12.567Z,100.00
2023-04-30T06:11:41.654Z,100.00
2023-04-30T06:14:33.035Z,100.00
2023-04-30T06:16:59.909Z,100.00
2023-04-30T06:19:26.744Z,100.00
2023-04-30T06:21:53.529Z,100.00
2023-04-30T06:24:22.689Z,100.00
2023-04-30T06:26:49.512Z,100.00
2023-04-30T06:29:16.482Z,100.00
2023-04-30T06:31:43.249Z,100.00
2023-04-30T06:34:10.034Z,100.00
2023-04-30T06:36:42.332Z,100.00
2023-04-30T06:39:09.797Z,100.00
2023-04-30T06:41:36.614Z,100.00
2023-04-30T06:44:03.374Z,100.00
2023-04-30T06:46:30.322Z,100.00
2023-04-30T06:48:57.070Z,100.00
2023-04-30T06:51:23.731Z,100.00
2023-04-30T06:53:53.458Z,100.00
2023-04-30T06:56:22.060Z,100.00
2023-04-30T06:58:50.372Z,100.00
2023-04-30T07:01:17.632Z,100.00
2023-04-30T07:03:44.517Z,100.00
2023-04-30T07:06:11.416Z,100.00
2023-04-30T07:08:41.004Z,100.00
2023-04-30T07:11:08.095Z,100.00
2023-04-30T07:13:35.068Z,100.00
2023-04-30T07:16:01.944Z,100.00
2023-04-30T07:18:28.746Z,100.00
2023-04-30T07:20:56.218Z,100.00
2023-04-30T07:26:04.881Z,100.00
2023-04-30T07:28:32.293Z,100.00
2023-04-30T07:30:59.226Z,100.00
2023-04-30T07:33:27.374Z,100.00
2023-04-30T07:35:56.158Z,100.00
2023-04-30T07:38:24.008Z,100.00
2023-04-30T07:40:51.031Z,100.00
2023-04-30T07:43:18.244Z,100.00
2023-04-30T07:45:46.622Z,100.00
2023-04-30T07:48:14.480Z,100.00
2023-04-30T07:50:41.298Z,100.00
2023-04-30T07:53:09.588Z,100.00
2023-04-30T07:55:37.660Z,100.00
2023-04-30T07:58:05.967Z,100.00
2023-04-30T08:00:34.791Z,100.00
2023-04-30T08:03:02.564Z,100.00
2023-04-30T08:05:30.329Z,100.00
2023-04-30T08:07:57.384Z,100.00
2023-04-30T08:10:25.369Z,100.00
2023-04-30T08:12:53.670Z,100.00
2023-04-30T08:15:24.161Z,100.00
2023-04-30T08:17:51.966Z,100.00
2023-04-30T08:20:20.034Z,100.00
2023-04-30T08:22:48.136Z,100.00
2023-04-30T08:25:16.393Z,100.00
2023-04-30T08:27:43.227Z,100.00
2023-04-30T08:30:10.162Z,100.00
2023-04-30T08:32:37.463Z,100.00
2023-04-30T08:35:08.140Z,100.00
2023-04-30T08:37:36.342Z,100.00
2023-04-30T08:40:05.870Z,100.00
2023-04-30T08:42:47.918Z,100.00
2023-04-30T08:45:16.602Z,100.00
2023-04-30T08:47:47.291Z,100.00
2023-04-30T08:50:16.638Z,100.00
2023-04-30T08:52:44.345Z,100.00
2023-04-30T08:55:11.719Z,100.00
2023-04-30T08:57:39.588Z,100.00
2023-04-30T09:00:11.730Z,100.00
2023-04-30T09:02:44.960Z,100.00
2023-04-30T09:05:15.764Z,100.00
2023-04-30T09:07:56.007Z,100.00
2023-04-30T09:11:03.576Z,100.00
2023-04-30T09:13:47.739Z,100.00
2023-04-30T09:16:30.641Z,100.00
2023-04-30T09:18:58.071Z,100.00
2023-04-30T09:21:37.445Z,100.00
2023-04-30T09:24:07.875Z,100.00
2023-04-30T09:26:44.917Z,100.00
2023-04-30T09:29:25.792Z,100.00
2023-04-30T09:32:17.667Z,100.00
2023-04-30T09:35:05.555Z,100.00
2023-04-30T09:40:13.003Z,100.00
2023-04-30T09:42:40.079Z,100.00
2023-04-30T09:45:08.048Z,100.00
2023-04-30T09:47:35.889Z,100.00
2023-04-30T09:50:02.792Z,100.00
2023-04-30T09:52:29.495Z,100.00
2023-04-30T09:54:56.152Z,100.00
2023-04-30T09:57:24.556Z,100.00
2023-04-30T09:59:52.752Z,100.00
2023-04-30T10:02:20.944Z,100.00
2023-04-30T10:04:53.958Z,100.00
2023-04-30T10:07:22.864Z,100.00
2023-04-30T10:10:03.237Z,100.00
2023-04-30T10:13:00.464Z,100.00
2023-04-30T10:15:39.330Z,100.00
2023-04-30T10:18:11.433Z,100.00
2023-04-30T10:20:39.408Z,100.00
2023-04-30T10:23:07.266Z,100.00
2023-04-30T10:25:34.110Z,100.00
2023-04-30T10:28:02.595Z,100.00
2023-04-30T10:30:31.958Z,100.00
2023-04-30T10:33:33.264Z,100.00
2023-04-30T10:36:02.573Z,100.00
2023-04-30T10:38:30.863Z,100.00
2023-04-30T10:40:59.310Z,100.00
2023-04-30T10:43:26.398Z,98.12
2023-04-30T10:45:53.297Z,99.78
2023-04-30T10:48:26.809Z,100.00
2023-04-30T10:50:56.848Z,99.22
2023-04-30T10:53:26.354Z,100.00
2023-04-30T10:56:07.504Z,100.00
2023-04-30T10:58:35.889Z,98.13
2023-04-30T11:01:13.665Z,97.74
2023-04-30T11:03:43.112Z,99.08
2023-04-30T11:06:15.113Z,100.00
2023-04-30T11:08:46.186Z,99.18
2023-04-30T11:11:20.745Z,99.66
2023-04-30T11:13:57.845Z,100.00
2023-04-30T11:16:31.562Z,99.91
2023-04-30T11:19:09.507Z,100.00
2023-04-30T11:22:05.502Z,100.00
2023-04-30T11:24:54.153Z,100.00
2023-04-30T11:27:23.049Z,99.71
2023-04-30T11:29:51.698Z,100.00
2023-04-30T11:32:23.643Z,100.00
2023-04-30T11:34:51.168Z,100.00
2023-04-30T11:37:24.668Z,99.96
2023-04-30T11:39:52.043Z,100.00
2023-04-30T11:42:19.722Z,100.00
2023-04-30T11:44:46.380Z,100.00
2023-04-30T11:47:14.536Z,100.00
2023-04-30T11:49:41.913Z,97.71
2023-04-30T11:52:09.580Z,99.49
2023-04-30T11:54:38.153Z,100.00
2023-04-30T11:57:06.399Z,100.00
2023-04-30T11:59:41.506Z,98.03
2023-04-30T12:02:08.512Z,100.00
2023-04-30T12:04:36.811Z,100.00
2023-04-30T12:07:03.593Z,99.15
2023-04-30T12:09:30.258Z,98.96
2023-04-30T12:11:56.932Z,99.79
2023-04-30T12:14:25.072Z,97.27
2023-04-30T12:16:52.931Z,94.88
2023-04-30T12:19:22.099Z,94.32
2023-04-30T12:21:49.766Z,95.09
2023-04-30T12:24:18.352Z,95.06
2023-04-30T12:26:45.851Z,92.78
2023-04-30T12:29:17.313Z,95.82
2023-04-30T12:31:44.670Z,95.05
2023-04-30T12:34:15.076Z,97.09
2023-04-30T12:36:45.019Z,96.40
2023-04-30T12:39:14.077Z,94.83
2023-04-30T12:41:45.990Z,94.08
2023-04-30T12:44:24.701Z,92.78
2023-04-30T12:46:56.337Z,93.72
2023-04-30T12:49:33.557Z,90.49
2023-04-30T12:52:04.383Z,90.55
2023-04-30T12:54:32.799Z,89.75
2023-04-30T12:57:05.216Z,95.25
2023-04-30T12:59:34.359Z,91.24
2023-04-30T13:02:11.717Z,93.40
2023-04-30T13:04:38.517Z,95.61
2023-04-30T13:07:05.302Z,93.22
2023-04-30T13:09:37.403Z,95.01
2023-04-30T13:12:04.900Z,94.46
2023-04-30T13:14:32.547Z,96.60
2023-04-30T13:16:59.642Z,94.81
2023-04-30T13:19:26.922Z,94.16
2023-04-30T13:21:53.690Z,90.62
2023-04-30T13:24:20.371Z,95.02
2023-04-30T13:26:47.519Z,90.71
2023-04-30T13:29:14.292Z,89.43
2023-04-30T13:31:42.444Z,87.97
2023-04-30T13:34:10.189Z,91.98
2023-04-30T13:36:37.073Z,93.52
2023-04-30T13:39:04.768Z,93.77
2023-04-30T13:41:31.527Z,91.55
2023-04-30T13:44:00.005Z,92.33
2023-04-30T13:46:26.737Z,93.26
2023-04-30T13:48:53.509Z,90.17
2023-04-30T13:51:20.190Z,88.30
2023-04-30T13:53:47.048Z,89.92
2023-04-30T13:56:15.401Z,89.13
2023-04-30T13:58:42.149Z,91.76
2023-04-30T14:01:10.354Z,90.29
2023-04-30T14:03:37.482Z,89.85
2023-04-30T14:06:05.759Z,91.15
2023-04-30T14:08:33.774Z,91.64
2023-04-30T14:11:00.788Z,89.28
2023-04-30T14:13:27.474Z,90.12
2023-04-30T14:15:56.195Z,89.17
2023-04-30T14:18:23.082Z,89.26
2023-04-30T14:20:49.948Z,88.12
2023-04-30T14:23:17.857Z,89.48
2023-04-30T14:25:44.640Z,91.01
2023-04-30T14:28:11.882Z,90.41
2023-04-30T14:30:38.766Z,88.94
2023-04-30T14:33:05.572Z,92.13
2023-04-30T14:35:33.131Z,88.21
2023-04-30T14:37:59.823Z,89.80
2023-04-30T14:40:26.550Z,93.43
2023-04-30T14:42:53.189Z,92.90
2023-04-30T14:45:20.009Z,91.02
2023-04-30T14:47:46.735Z,90.80
2023-04-30T14:50:14.062Z,90.30
2023-04-30T14:52:42.129Z,91.09
2023-04-30T14:55:09.145Z,87.90
2023-04-30T14:57:36.470Z,91.11
2023-04-30T15:00:04.092Z,92.09
2023-04-30T15:02:30.996Z,92.70
2023-04-30T15:04:57.937Z,89.59
2023-04-30T15:07:24.775Z,88.89
2023-04-30T15:09:52.852Z,91.45
2023-04-30T15:12:20.143Z,90.91
2023-04-30T15:14:46.892Z,94.39
2023-04-30T15:17:13.718Z,92.59
2023-04-30T15:19:40.442Z,91.97
2023-04-30T15:22:07.951Z,91.45
2023-04-30T15:24:34.639Z,94.01
2023-04-30T15:27:01.882Z,89.93
2023-04-30T15:29:28.488Z,90.44
2023-04-30T15:31:55.337Z,87.80
2023-04-30T15:34:22.992Z,86.87
2023-04-30T15:36:50.166Z,87.92
2023-04-30T15:39:17.810Z,89.08
2023-04-30T15:41:47.359Z,91.13
2023-04-30T15:44:14.169Z,90.96
2023-04-30T15:46:41.973Z,89.33
2023-04-30T15:49:08.872Z,90.38
2023-04-30T15:51:36.690Z,92.66
2023-04-30T15:54:03.339Z,93.75
2023-04-30T15:56:30.589Z,94.55
2023-04-30T15:58:57.408Z,92.79
2023-04-30T16:01:24.240Z,94.17
2023-04-30T16:03:51.402Z,93.34
2023-04-30T16:06:18.604Z,90.56
2023-04-30T16:08:46.347Z,93.76
2023-04-30T16:11:13.045Z,91.67
2023-04-30T16:13:39.704Z,92.93
2023-04-30T16:16:08.765Z,92.00
2023-04-30T16:18:35.466Z,93.80
2023-04-30T16:21:02.268Z,93.78
2023-04-30T16:23:28.933Z,91.48
2023-04-30T16:25:56.364Z,93.63
2023-04-30T16:28:23.706Z,95.14
2023-04-30T16:30:50.849Z,93.26
2023-04-30T16:33:17.928Z,92.67
2023-04-30T16:35:44.874Z,90.04
2023-04-30T16:38:11.572Z,92.25
2023-04-30T16:40:38.438Z,91.33
2023-04-30T16:43:06.275Z,93.83
2023-04-30T16:45:33.371Z,94.19
2023-04-30T16:48:00.459Z,94.38
2023-04-30T16:50:27.289Z,93.91
2023-04-30T16:52:53.954Z,93.09
2023-04-30T16:55:20.751Z,91.37
2023-04-30T16:57:47.504Z,94.38
2023-04-30T17:00:15.526Z,94.36
2023-04-30T17:02:45.490Z,94.45
2023-04-30T17:05:12.301Z,95.87
2023-04-30T17:07:38.991Z,95.09
2023-04-30T17:10:06.352Z,95.68
2023-04-30T17:12:33.422Z,96.12
2023-04-30T17:15:00.141Z,95.51
2023-04-30T17:17:26.900Z,95.51
2023-04-30T17:19:53.814Z,96.74
2023-04-30T17:22:21.434Z,97.10
2023-04-30T17:24:48.136Z,97.97
2023-04-30T17:27:15.132Z,99.72
2023-04-30T17:29:42.305Z,100.00
2023-04-30T17:32:10.540Z,99.51
2023-04-30T17:34:38.369Z,99.18
2023-04-30T17:37:05.040Z,98.98
2023-04-30T17:39:32.577Z,100.00
2023-04-30T17:41:59.751Z,100.00
2023-04-30T17:44:26.427Z,100.00
2023-04-30T17:46:54.167Z,100.00
2023-04-30T17:49:20.959Z,100.00
2023-04-30T17:51:48.387Z,100.00
2023-04-30T17:54:15.002Z,100.00
2023-04-30T17:56:41.669Z,100.00
2023-04-30T17:59:08.440Z,100.00
2023-04-30T18:01:35.132Z,100.00
2023-04-30T18:04:03.766Z,100.00
2023-04-30T18:06:31.102Z,100.00
2023-04-30T18:09:01.115Z,100.00
2023-04-30T18:11:28.181Z,100.00
2023-04-30T18:13:54.820Z,100.00
2023-04-30T18:16:21.615Z,100.00
2023-04-30T18:18:48.273Z,100.00
2023-04-30T18:21:15.236Z,100.00
2023-04-30T18:23:41.896Z,100.00
2023-04-30T18:26:08.518Z,100.00
2023-04-30T18:28:36.834Z,100.00
2023-04-30T18:31:03.505Z,100.00
2023-04-30T18:33:31.166Z,100.00
2023-04-30T18:36:01.521Z,100.00
2023-04-30T18:38:29.613Z,100.00
2023-04-30T18:40:56.291Z,100.00
2023-04-30T18:43:23.429Z,100.00
2023-04-30T18:45:50.151Z,100.00
2023-04-30T18:48:19.248Z,100.00
2023-04-30T18:50:46.689Z,100.00
2023-04-30T18:53:13.528Z,100.00
2023-04-30T18:55:40.304Z,100.00
2023-04-30T18:58:08.279Z,100.00
2023-04-30T19:00:35.050Z,100.00
2023-04-30T19:03:01.891Z,100.00
2023-04-30T19:05:28.639Z,100.00
2023-04-30T19:07:55.322Z,100.00
2023-04-30T19:10:21.969Z,100.00
2023-04-30T19:12:49.309Z,100.00
2023-04-30T19:15:17.869Z,100.00
2023-04-30T19:17:44.639Z,100.00
2023-04-30T19:20:12.129Z,100.00
2023-04-30T19:22:38.806Z,100.00
2023-04-30T19:25:05.934Z,100.00
2023-04-30T19:27:32.550Z,100.00
2023-04-30T19:29:59.463Z,100.00
2023-04-30T19:32:26.261Z,100.00
2023-04-30T19:34:53.805Z,100.00
2023-04-30T19:37:20.533Z,100.00
2023-04-30T19:39:47.196Z,100.00
2023-04-30T19:42:13.822Z,100.00
2023-04-30T19:44:40.459Z,100.00
2023-04-30T19:47:07.373Z,100.00
2023-04-30T19:49:34.430Z,100.00
2023-04-30T19:52:01.619Z,100.00
2023-04-30T19:54:28.837Z,100.00
2023-04-30T19:56:55.508Z,100.00
2023-04-30T19:59:22.219Z,100.00
2023-04-30T20:01:49.019Z,100.00
2023-04-30T20:04:15.802Z,100.00
2023-04-30T20:06:42.605Z,100.00
2023-04-30T20:09:09.282Z,100.00
2023-04-30T20:11:36.092Z,100.00
2023-04-30T20:14:03.027Z,100.00
2023-04-30T20:16:29.812Z,100.00
2023-04-30T20:18:56.832Z,100.00
2023-04-30T20:21:25.006Z,100.00
2023-04-30T20:23:51.709Z,100.00
2023-04-30T20:26:18.655Z,100.00
2023-04-30T20:28:45.297Z,100.00
2023-04-30T20:31:12.111Z,100.00
2023-04-30T20:33:41.171Z,100.00
2023-04-30T20:36:08.148Z,100.00
2023-04-30T20:38:34.845Z,100.00
2023-04-30T20:41:02.138Z,100.00
2023-04-30T20:43:28.834Z,100.00
2023-04-30T20:46:01.418Z,100.00
2023-04-30T20:48:28.045Z,100.00
2023-04-30T20:50:55.510Z,100.00
2023-04-30T20:53:22.938Z,100.00
2023-04-30T20:55:49.658Z,100.00
2023-04-30T20:58:16.564Z,100.00
2023-04-30T21:00:43.318Z,100.00
2023-04-30T21:03:10.210Z,100.00
2023-04-30T21:05:37.211Z,100.00
2023-04-30T21:08:03.889Z,100.00
2023-04-30T21:10:36.103Z,100.00
2023-04-30T21:13:05.288Z,100.00
2023-04-30T21:15:34.345Z,100.00
2023-04-30T21:18:01.073Z,100.00
2023-04-30T21:20:28.046Z,100.00
2023-04-30T21:22:55.546Z,100.00
2023-04-30T21:25:22.301Z,100.00
2023-04-30T21:27:49.044Z,100.00
2023-04-30T21:30:17.058Z,100.00
2023-04-30T21:32:47.154Z,100.00
2023-04-30T21:35:14.605Z,100.00
2023-04-30T21:37:42.007Z,100.00
2023-04-30T21:40:09.038Z,100.00
2023-04-30T21:42:36.045Z,100.00
2023-04-30T21:45:02.905Z,100.00
2023-04-30T21:47:30.725Z,100.00
2023-04-30T21:49:58.682Z,100.00
2023-04-30T21:52:25.582Z,100.00
2023-04-30T21:54:52.206Z,100.00
2023-04-30T21:57:19.532Z,100.00
2023-04-30T21:59:46.259Z,100.00
2023-04-30T22:02:22.874Z,100.00
2023-04-30T22:04:50.635Z,100.00
2023-04-30T22:07:17.549Z,100.00
2023-04-30T22:09:44.991Z,100.00
2023-04-30T22:12:11.760Z,100.00
2023-04-30T22:14:38.562Z,100.00
2023-04-30T22:17:08.922Z,100.00
2023-04-30T22:19:35.534Z,100.00
2023-04-30T22:22:02.130Z,100.00
2023-04-30T22:24:29.745Z,100.00
2023-04-30T22:26:56.408Z,100.00
2023-04-30T22:29:23.107Z,100.00
2023-04-30T22:31:49.810Z,100.00
2023-04-30T22:34:19.356Z,100.00
2023-04-30T22:36:46.267Z,100.00
2023-04-30T22:39:13.348Z,100.00
2023-04-30T22:41:40.625Z,100.00
2023-04-30T22:44:07.556Z,100.00
2023-04-30T22:46:36.684Z,100.00
2023-04-30T22:49:03.675Z,100.00
2023-04-30T22:51:31.640Z,100.00
2023-04-30T22:53:58.441Z,100.00
2023-04-30T22:56:25.188Z,100.00
2023-04-30T22:58:51.776Z,100.00
2023-04-30T23:01:18.472Z,100.00
2023-04-30T23:03:45.189Z,100.00
2023-04-30T23:06:11.989Z,100.00
2023-04-30T23:08:38.984Z,100.00
2023-04-30T23:11:05.747Z,100.00
2023-04-30T23:13:32.574Z,100.00
2023-04-30T23:15:59.859Z,100.00
2023-04-30T23:18:27.302Z,100.00
2023-04-30T23:20:59.835Z,100.00
2023-04-30T23:23:27.267Z,100.00
2023-04-30T23:25:54.767Z,100.00
2023-04-30T23:28:22.288Z,100.00
2023-04-30T23:30:52.964Z,100.00
2023-04-30T23:33:20.031Z,100.00
2023-04-30T23:35:47.325Z,100.00
2023-04-30T23:38:14.795Z,100.00
2023-04-30T23:40:42.136Z,100.00
2023-04-30T23:43:09.619Z,100.00
2023-04-30T23:45:36.282Z,100.00
2023-04-30T23:48:03.046Z,100.00
2023-04-30T23:50:29.758Z,100.00
2023-04-30T23:52:56.388Z,100.00
2023-04-30T23:55:23.027Z,100.00
2023-04-30T23:57:49.682Z,100.00
